Time;durP1;ratioP1;P1;durP2;ratioP2;P2;SDS_P1;SDS_P2;PMS_P1;PMS_P2;Temp;Humidity;BMP_temperature;BMP_pressure;BME280_temperature;BME280_humidity;BME280_pressure;Samples;Min_cycle;Max_cycle;Signal;HPM_P1;HPM_P2
2022/04/07 00:00:33;;;;;;;30.13;3.80;;;9.30;99.90;;;;;;5024726;28;20021;-72
2022/04/07 00:02:59;;;;;;;29.17;3.22;;;9.30;99.90;;;;;;5023928;28;20025;-74
2022/04/07 00:05:24;;;;;;;24.08;3.83;;;9.20;99.90;;;;;;5007537;28;20049;-74
2022/04/07 00:07:50;;;;;;;29.95;3.65;;;9.20;99.90;;;;;;5023685;28;20026;-73
2022/04/07 00:10:16;;;;;;;21.83;3.13;;;9.20;99.90;;;;;;5024750;28;20022;-72
2022/04/07 00:12:42;;;;;;;28.45;3.20;;;9.10;99.90;;;;;;5021323;28;20062;-72
2022/04/07 00:15:09;;;;;;;34.47;3.25;;;9.10;99.90;;;;;;5023766;28;20025;-72
2022/04/07 00:17:35;;;;;;;34.03;4.80;;;9.10;99.90;;;;;;5023099;28;20209;-73
2022/04/07 00:20:01;;;;;;;25.38;3.47;;;9.10;99.90;;;;;;5023712;28;20029;-74
2022/04/07 00:22:27;;;;;;;26.15;3.28;;;9.00;99.90;;;;;;5023555;28;20017;-73
2022/04/07 00:24:53;;;;;;;23.48;2.90;;;9.00;99.90;;;;;;5023230;28;20084;-71
2022/04/07 00:27:19;;;;;;;36.15;3.60;;;9.00;99.90;;;;;;5023161;28;20018;-75
2022/04/07 00:29:44;;;;;;;28.55;3.50;;;9.00;99.90;;;;;;5006922;28;20057;-71
2022/04/07 00:32:10;;;;;;;33.67;3.35;;;9.00;99.90;;;;;;5006940;28;20060;-71
2022/04/07 00:34:36;;;;;;;24.52;2.53;;;9.00;99.90;;;;;;5003554;28;20053;-72
2022/04/07 00:37:02;;;;;;;19.50;2.45;;;9.00;99.90;;;;;;5003614;28;20033;-70
2022/04/07 00:39:28;;;;;;;26.05;3.65;;;9.00;99.90;;;;;;5003532;28;20056;-72
2022/04/07 00:41:54;;;;;;;22.30;2.95;;;9.00;99.90;;;;;;4987415;28;20050;-73
2022/04/07 00:44:22;;;;;;;26.08;3.67;;;9.00;99.90;;;;;;4986986;28;20022;-72
2022/04/07 00:46:47;;;;;;;17.48;2.90;;;9.00;99.90;;;;;;5011604;28;20209;-70
2022/04/07 00:49:14;;;;;;;18.92;2.33;;;9.00;99.90;;;;;;5023422;28;20050;-69
2022/04/07 00:51:42;;;;;;;12.73;2.65;;;9.00;99.90;;;;;;5023001;28;20085;-69
2022/04/07 00:54:09;;;;;;;25.40;3.42;;;9.00;99.90;;;;;;5022761;28;20080;-71
2022/04/07 00:56:36;;;;;;;23.67;3.78;;;8.90;99.90;;;;;;5006621;28;20021;-71
2022/04/07 00:59:04;;;;;;;21.77;2.47;;;8.70;99.90;;;;;;5022986;28;20033;-71
2022/04/07 01:01:30;;;;;;;29.05;3.30;;;8.70;99.90;;;;;;5022815;28;20045;-71
2022/04/07 01:03:57;;;;;;;24.17;3.10;;;8.70;99.90;;;;;;5024155;28;20041;-72
2022/04/07 01:06:24;;;;;;;30.75;4.72;;;8.70;99.90;;;;;;5022676;28;20028;-70
2022/04/07 01:08:50;;;;;;;14.43;2.60;;;8.80;99.90;;;;;;5022593;28;20026;-72
2022/04/07 01:11:17;;;;;;;24.23;2.50;;;8.80;99.90;;;;;;5006417;28;20018;-70
2022/04/07 01:13:50;;;;;;;14.88;2.53;;;8.70;99.90;;;;;;5020854;28;20018;-73
2022/04/07 01:16:17;;;;;;;15.13;1.83;;;8.60;99.90;;;;;;5006411;28;20305;-71
2022/04/07 01:18:44;;;;;;;7.28;0.73;;;8.50;99.90;;;;;;5022718;28;20110;-73
2022/04/07 01:21:11;;;;;;;13.13;1.20;;;8.40;99.90;;;;;;5022372;28;20018;-70
2022/04/07 01:23:38;;;;;;;11.88;1.23;;;8.40;99.90;;;;;;5022467;28;20022;-70
2022/04/07 01:26:06;;;;;;;6.13;1.55;;;8.40;99.90;;;;;;5023866;28;20077;-71
2022/04/07 01:28:32;;;;;;;13.45;1.95;;;8.50;99.90;;;;;;5006059;28;20064;-70
2022/04/07 01:30:58;;;;;;;18.25;2.47;;;8.50;99.90;;;;;;5022551;28;20083;-70
2022/04/07 01:33:24;;;;;;;13.77;2.17;;;8.50;99.90;;;;;;5022685;28;20080;-70
2022/04/07 01:35:51;;;;;;;23.67;2.60;;;8.40;99.90;;;;;;5019171;28;20310;-74
2022/04/07 01:38:18;;;;;;;15.63;3.10;;;8.50;99.90;;;;;;5003931;28;20264;-72
2022/04/07 01:40:45;;;;;;;24.10;3.38;;;8.50;99.90;;;;;;5003064;28;20085;-72
2022/04/07 01:43:14;;;;;;;17.38;2.30;;;8.40;99.90;;;;;;4989581;28;20026;-70
2022/04/07 01:45:40;;;;;;;18.95;2.25;;;8.50;99.90;;;;;;5006694;28;20205;-70
2022/04/07 01:48:07;;;;;;;24.08;3.00;;;8.60;99.90;;;;;;5025218;28;20060;-71
2022/04/07 01:50:34;;;;;;;15.27;2.38;;;8.70;99.90;;;;;;5026042;28;20320;-70
2022/04/07 01:53:01;;;;;;;25.27;3.35;;;8.70;99.90;;;;;;5026360;28;20041;-72
2022/04/07 01:55:27;;;;;;;17.17;3.47;;;8.80;99.90;;;;;;5026337;28;20029;-71
2022/04/07 01:57:54;;;;;;;32.00;2.92;;;8.80;99.90;;;;;;4993469;28;20247;-73
2022/04/07 02:00:20;;;;;;;31.20;3.13;;;8.90;99.90;;;;;;5009808;28;20026;-71
2022/04/07 02:02:45;;;;;;;27.05;3.78;;;9.00;99.90;;;;;;5026132;28;20212;-72
2022/04/07 02:05:12;;;;;;;35.60;3.83;;;9.00;99.90;;;;;;5026225;28;20205;-73
2022/04/07 02:07:40;;;;;;;26.65;3.80;;;9.10;99.90;;;;;;5009524;28;20021;-73
2022/04/07 02:10:08;;;;;;;28.00;3.85;;;9.10;99.90;;;;;;5009809;28;20033;-74
2022/04/07 02:12:37;;;;;;;25.40;3.40;;;9.20;99.90;;;;;;4992948;28;20060;-73
2022/04/07 02:15:04;;;;;;;22.58;4.18;;;9.20;99.90;;;;;;5008473;28;20036;-71
2022/04/07 02:17:30;;;;;;;29.95;3.83;;;9.20;99.90;;;;;;5009751;28;20308;-72
2022/04/07 02:19:58;;;;;;;26.67;3.60;;;9.20;99.90;;;;;;5025800;28;20093;-72
2022/04/07 02:22:24;;;;;;;26.38;3.60;;;9.20;99.90;;;;;;5025814;28;20026;-71
2022/04/07 02:24:50;;;;;;;24.80;3.58;;;9.30;99.90;;;;;;5025734;28;20089;-70
2022/04/07 02:27:16;;;;;;;20.25;2.90;;;9.30;99.90;;;;;;5026762;28;20312;-69
2022/04/07 02:29:43;;;;;;;30.05;4.70;;;9.30;99.90;;;;;;5025474;28;20057;-72
2022/04/07 02:32:11;;;;;;;29.35;4.07;;;9.40;99.90;;;;;;5026663;28;20034;-69
2022/04/07 02:34:38;;;;;;;24.83;4.20;;;9.40;99.90;;;;;;5006065;28;20305;-71
2022/04/07 02:37:04;;;;;;;31.00;5.25;;;9.40;99.90;;;;;;5005925;28;20026;-69
2022/04/07 02:39:29;;;;;;;38.60;4.75;;;9.40;99.90;;;;;;5021813;28;20097;-71
2022/04/07 02:41:55;;;;;;;36.75;4.10;;;9.40;99.90;;;;;;5005627;28;20206;-71
2022/04/07 02:44:21;;;;;;;30.27;5.25;;;9.40;99.90;;;;;;4989079;28;20018;-72
2022/04/07 02:46:46;;;;;;;25.08;4.18;;;9.40;99.90;;;;;;4997556;28;20022;-69
2022/04/07 02:49:12;;;;;;;26.98;3.35;;;9.40;99.90;;;;;;5008399;28;20046;-71
2022/04/07 02:51:38;;;;;;;25.58;3.40;;;9.40;99.90;;;;;;5026166;28;20028;-71
2022/04/07 02:54:05;;;;;;;20.80;3.28;;;9.40;99.90;;;;;;5025224;28;20014;-70
2022/04/07 02:56:30;;;;;;;26.52;4.05;;;9.40;99.90;;;;;;5024668;28;20029;-69
2022/04/07 02:58:56;;;;;;;17.60;2.50;;;9.40;99.90;;;;;;5025917;28;20080;-69
2022/04/07 03:01:22;;;;;;;33.17;3.75;;;9.40;99.90;;;;;;5025968;28;20021;-70
2022/04/07 03:03:49;;;;;;;23.75;3.35;;;9.40;99.90;;;;;;5024707;28;20022;-69
2022/04/07 03:06:16;;;;;;;26.27;3.03;;;9.40;99.90;;;;;;5025721;28;20317;-70
2022/04/07 03:08:43;;;;;;;18.85;2.97;;;9.40;99.90;;;;;;5025821;28;20018;-70
2022/04/07 03:11:09;;;;;;;19.15;3.05;;;9.30;99.90;;;;;;5024650;28;20056;-69
2022/04/07 03:13:36;;;;;;;21.90;2.00;;;9.30;99.90;;;;;;5007416;28;20026;-69
2022/04/07 03:16:03;;;;;;;26.05;4.57;;;9.30;99.90;;;;;;5025313;28;20026;-70
2022/04/07 03:18:28;;;;;;;22.98;3.30;;;9.30;99.90;;;;;;5008384;28;20219;-69
2022/04/07 03:20:55;;;;;;;20.85;3.17;;;9.30;99.90;;;;;;5008249;28;20026;-70
2022/04/07 03:23:20;;;;;;;25.33;3.85;;;9.30;99.90;;;;;;5008034;28;20178;-70
2022/04/07 03:25:46;;;;;;;20.25;2.85;;;9.30;99.90;;;;;;5025806;28;20021;-70
2022/04/07 03:28:12;;;;;;;20.70;2.97;;;9.30;99.90;;;;;;5025529;28;20025;-70
2022/04/07 03:30:38;;;;;;;18.98;2.78;;;9.30;99.90;;;;;;5024169;28;20093;-69
2022/04/07 03:33:06;;;;;;;20.77;3.20;;;9.20;99.90;;;;;;5025458;28;20033;-70
2022/04/07 03:35:32;;;;;;;16.95;3.67;;;9.30;99.90;;;;;;5004557;28;20209;-70
2022/04/07 03:37:58;;;;;;;13.85;2.85;;;9.20;99.90;;;;;;5004708;28;20089;-69
2022/04/07 03:40:25;;;;;;;16.98;2.75;;;9.20;99.90;;;;;;5004378;28;20022;-69
2022/04/07 03:42:51;;;;;;;6.60;1.55;;;9.10;99.90;;;;;;5020513;28;20025;-71
2022/04/07 03:45:17;;;;;;;21.50;2.90;;;9.10;99.90;;;;;;4988277;28;20070;-69
2022/04/07 03:47:43;;;;;;;12.95;2.13;;;9.10;99.90;;;;;;5003612;28;20045;-70
2022/04/07 03:50:09;;;;;;;21.98;2.78;;;9.00;99.90;;;;;;5025022;28;20067;-70
2022/04/07 03:52:36;;;;;;;21.95;2.40;;;9.00;99.90;;;;;;5024037;28;20087;-68
2022/04/07 03:55:03;;;;;;;19.50;3.30;;;9.00;99.90;;;;;;5024934;28;20085;-71
2022/04/07 03:57:28;;;;;;;21.90;2.47;;;8.90;99.90;;;;;;5024117;28;20036;-71
2022/04/07 03:59:54;;;;;;;11.57;1.88;;;8.90;99.90;;;;;;5023489;28;20182;-71
2022/04/07 04:02:19;;;;;;;18.13;2.72;;;8.90;99.90;;;;;;5007418;28;20075;-68
2022/04/07 04:04:45;;;;;;;12.70;2.10;;;8.80;99.90;;;;;;5007383;28;20089;-71
2022/04/07 04:07:11;;;;;;;19.98;2.45;;;8.80;99.90;;;;;;5024901;28;20022;-70
2022/04/07 04:09:36;;;;;;;15.90;2.38;;;8.80;99.90;;;;;;5023221;28;20056;-70
2022/04/07 04:12:03;;;;;;;9.27;1.60;;;8.80;99.80;;;;;;5024652;28;20208;-69
2022/04/07 04:14:29;;;;;;;14.60;2.10;;;8.80;99.80;;;;;;5005045;28;20252;-69
2022/04/07 04:16:55;;;;;;;14.70;2.03;;;8.80;99.90;;;;;;5024735;28;20021;-69
2022/04/07 04:19:21;;;;;;;12.73;2.35;;;8.70;99.90;;;;;;5023462;28;20220;-70
2022/04/07 04:21:46;;;;;;;13.77;1.63;;;8.70;99.90;;;;;;5023342;28;20041;-71
2022/04/07 04:24:12;;;;;;;14.60;3.00;;;8.60;99.90;;;;;;5007042;28;20021;-69
2022/04/07 04:26:38;;;;;;;15.07;2.30;;;8.60;99.90;;;;;;5007158;28;20248;-69
2022/04/07 04:29:04;;;;;;;21.65;2.13;;;8.50;99.90;;;;;;5006813;28;20253;-69
2022/04/07 04:31:30;;;;;;;12.85;1.70;;;8.50;99.70;;;;;;5023007;28;20048;-69
2022/04/07 04:33:56;;;;;;;17.23;2.30;;;8.50;99.90;;;;;;5019068;28;20030;-69
2022/04/07 04:36:22;;;;;;;12.45;1.90;;;8.50;99.90;;;;;;5003507;28;20289;-70
2022/04/07 04:38:48;;;;;;;9.93;1.77;;;8.50;99.90;;;;;;5004694;28;20022;-68
2022/04/07 04:41:15;;;;;;;14.07;2.05;;;8.50;99.90;;;;;;5003472;28;20022;-70
2022/04/07 04:43:40;;;;;;;10.27;1.55;;;8.50;99.90;;;;;;5002659;28;20298;-69
2022/04/07 04:46:07;;;;;;;18.05;2.08;;;8.40;99.90;;;;;;5007416;28;20010;-70
2022/04/07 04:48:33;;;;;;;16.30;2.58;;;8.50;99.90;;;;;;5022253;28;20121;-70
2022/04/07 04:50:59;;;;;;;15.77;2.33;;;8.40;99.90;;;;;;4990374;28;20033;-69
2022/04/07 04:53:25;;;;;;;25.75;2.95;;;8.40;99.90;;;;;;5024060;28;20332;-69
2022/04/07 04:55:51;;;;;;;12.57;1.58;;;8.40;99.90;;;;;;5022734;28;20026;-69
2022/04/07 04:58:17;;;;;;;19.88;1.77;;;8.40;99.80;;;;;;5022960;28;20022;-68
2022/04/07 05:00:43;;;;;;;12.45;1.77;;;8.40;99.80;;;;;;5022541;28;20079;-69
2022/04/07 05:03:09;;;;;;;15.27;2.22;;;8.30;99.90;;;;;;5006355;28;20136;-69
2022/04/07 05:05:35;;;;;;;17.05;2.45;;;8.30;99.90;;;;;;5022847;28;20057;-69
2022/04/07 05:08:00;;;;;;;10.85;2.03;;;8.30;99.90;;;;;;5022844;28;20056;-68
2022/04/07 05:10:26;;;;;;;15.10;2.25;;;8.30;99.90;;;;;;5023842;28;20029;-70
2022/04/07 05:12:53;;;;;;;15.20;2.65;;;8.30;99.90;;;;;;5023044;28;20041;-70
2022/04/07 05:15:19;;;;;;;15.88;2.13;;;8.30;99.90;;;;;;5021352;28;20057;-70
2022/04/07 05:17:49;;;;;;;13.80;1.85;;;8.30;99.90;;;;;;5023266;28;20017;-69
2022/04/07 05:20:15;;;;;;;17.73;2.22;;;8.30;99.90;;;;;;5022792;28;20136;-70
2022/04/07 05:22:41;;;;;;;22.17;2.40;;;8.30;99.90;;;;;;5023637;28;20224;-69
2022/04/07 05:25:08;;;;;;;18.92;2.60;;;8.30;99.90;;;;;;5022729;28;20052;-70
2022/04/07 05:27:36;;;;;;;12.82;1.95;;;8.40;99.90;;;;;;5024004;28;20071;-69
2022/04/07 05:30:04;;;;;;;15.38;2.65;;;8.40;99.90;;;;;;5006267;28;20320;-70
2022/04/07 05:32:30;;;;;;;15.57;1.95;;;8.40;99.90;;;;;;5022277;28;20208;-69
2022/04/07 05:34:56;;;;;;;11.75;1.92;;;8.40;99.90;;;;;;5022311;28;20209;-67
2022/04/07 05:37:22;;;;;;;14.63;3.20;;;8.40;99.90;;;;;;5022774;28;20044;-69
2022/04/07 05:39:47;;;;;;;17.85;2.58;;;8.40;99.90;;;;;;5022481;28;20018;-67
2022/04/07 05:42:13;;;;;;;21.67;2.65;;;8.50;99.90;;;;;;5022430;28;20037;-68
2022/04/07 05:44:39;;;;;;;11.85;2.40;;;8.40;99.90;;;;;;5005663;28;20182;-72
2022/04/07 05:47:05;;;;;;;17.38;2.35;;;8.40;99.90;;;;;;5022351;28;20045;-70
2022/04/07 05:49:30;;;;;;;13.07;1.33;;;8.40;99.80;;;;;;5022125;28;20045;-70
2022/04/07 05:52:02;;;;;;;13.70;2.75;;;8.40;99.90;;;;;;5021966;28;20347;-69
2022/04/07 05:54:28;;;;;;;21.98;2.40;;;8.40;99.90;;;;;;5006872;28;20209;-70
2022/04/07 05:56:53;;;;;;;14.40;2.03;;;8.40;99.90;;;;;;5022246;28;20026;-71
2022/04/07 05:59:19;;;;;;;19.63;4.13;;;8.40;99.90;;;;;;5022093;28;20252;-71
2022/04/07 06:01:45;;;;;;;12.15;2.22;;;8.40;99.90;;;;;;5005476;28;20213;-70
2022/04/07 06:04:10;;;;;;;12.98;2.15;;;8.40;99.60;;;;;;5005796;28;20033;-71
2022/04/07 06:06:36;;;;;;;17.25;2.35;;;8.40;99.30;;;;;;5005503;28;20336;-70
2022/04/07 06:09:03;;;;;;;14.48;2.15;;;8.40;99.60;;;;;;5022252;28;20030;-69
2022/04/07 06:11:29;;;;;;;16.33;2.05;;;8.50;99.60;;;;;;5022208;28;20209;-70
2022/04/07 06:13:54;;;;;;;22.02;2.95;;;8.50;99.30;;;;;;5021640;28;20085;-70
2022/04/07 06:16:20;;;;;;;20.88;2.72;;;8.60;99.40;;;;;;5020375;28;20386;-69
2022/04/07 06:18:46;;;;;;;12.85;1.85;;;8.60;99.50;;;;;;5023418;28;20026;-69
2022/04/07 06:21:11;;;;;;;19.05;2.67;;;8.60;99.40;;;;;;5005588;28;20017;-70
2022/04/07 06:23:37;;;;;;;17.58;1.77;;;8.60;99.60;;;;;;5021737;28;20064;-70
2022/04/07 06:26:03;;;;;;;25.58;3.15;;;8.60;99.00;;;;;;5021801;28;20221;-71
2022/04/07 06:28:29;;;;;;;26.27;3.88;;;8.60;99.00;;;;;;5023883;28;20317;-70
2022/04/07 06:30:54;;;;;;;7.22;1.67;;;8.70;99.50;;;;;;5009070;28;20313;-69
2022/04/07 06:33:22;;;;;;;9.98;1.42;;;8.70;99.00;;;;;;5026425;28;20107;-69
2022/04/07 06:35:49;;;;;;;13.48;1.77;;;8.70;98.90;;;;;;5005567;28;20030;-68
2022/04/07 06:38:15;;;;;;;12.25;1.95;;;8.70;98.80;;;;;;5006951;28;20093;-68
2022/04/07 06:40:41;;;;;;;15.43;2.20;;;8.70;98.80;;;;;;5006564;28;20364;-71
2022/04/07 06:43:07;;;;;;;16.58;2.78;;;8.70;99.00;;;;;;5004942;28;20029;-71
2022/04/07 06:45:32;;;;;;;17.13;2.40;;;8.70;98.80;;;;;;5005320;28;20294;-73
2022/04/07 06:47:58;;;;;;;22.08;2.28;;;8.70;98.90;;;;;;5022968;28;20229;-71
2022/04/07 06:50:25;;;;;;;13.80;2.10;;;8.70;98.90;;;;;;5025015;28;20041;-71
2022/04/07 06:52:52;;;;;;;25.98;3.30;;;8.70;98.90;;;;;;5024771;28;20058;-70
2022/04/07 06:55:17;;;;;;;6.10;1.27;;;8.80;98.70;;;;;;5025033;28;20021;-69
2022/04/07 06:57:52;;;;;;;6.22;1.40;;;8.80;98.60;;;;;;5026046;28;20084;-70
2022/04/07 07:00:19;;;;;;;10.50;2.13;;;8.70;98.30;;;;;;5025667;28;20358;-69
2022/04/07 07:02:47;;;;;;;18.80;2.85;;;8.80;98.20;;;;;;5006048;28;20026;-69
2022/04/07 07:05:16;;;;;;;9.38;1.65;;;8.80;98.00;;;;;;5004881;28;20198;-70
2022/04/07 07:07:42;;;;;;;10.40;2.25;;;8.80;98.20;;;;;;5015467;28;20021;-69
2022/04/07 07:10:08;;;;;;;18.00;2.05;;;8.90;98.20;;;;;;5027361;28;20320;-71
2022/04/07 07:12:34;;;;;;;15.02;2.17;;;9.00;98.10;;;;;;5024277;28;20037;-71
2022/04/07 07:15:00;;;;;;;18.30;2.25;;;9.00;98.00;;;;;;5021080;28;20068;-70
2022/04/07 07:17:33;;;;;;;23.15;3.33;;;9.00;98.00;;;;;;5022612;28;20041;-70
2022/04/07 07:20:02;;;;;;;13.07;1.65;;;9.00;97.70;;;;;;5008637;28;20284;-67
2022/04/07 07:22:27;;;;;;;17.40;3.00;;;9.10;97.60;;;;;;5040283;28;20022;-69
2022/04/07 07:24:53;;;;;;;20.38;2.00;;;9.20;97.70;;;;;;5007072;28;20026;-70
2022/04/07 07:27:18;;;;;;;8.00;1.60;;;9.20;97.20;;;;;;5007264;28;20032;-70
2022/04/07 07:29:44;;;;;;;7.50;1.75;;;9.30;97.60;;;;;;5023513;28;20079;-70
2022/04/07 07:32:10;;;;;;;21.38;2.88;;;9.30;97.20;;;;;;4987893;28;20020;-70
2022/04/07 07:34:35;;;;;;;17.05;3.30;;;9.30;97.90;;;;;;5014781;28;20021;-72
2022/04/07 07:37:01;;;;;;;16.27;2.08;;;9.30;97.40;;;;;;5023523;28;20309;-70
2022/04/07 07:39:27;;;;;;;17.33;2.42;;;9.40;97.70;;;;;;5023350;28;20040;-69
2022/04/07 07:41:52;;;;;;;25.70;2.80;;;9.50;97.30;;;;;;5007272;28;20021;-72
2022/04/07 07:44:19;;;;;;;15.57;2.22;;;9.50;97.20;;;;;;4993798;28;20018;-70
2022/04/07 07:46:45;;;;;;;19.95;2.45;;;9.50;96.60;;;;;;5028484;28;20099;-70
2022/04/07 07:49:11;;;;;;;12.40;2.08;;;9.50;96.70;;;;;;5020345;28;20050;-68
2022/04/07 07:51:37;;;;;;;9.18;1.52;;;9.50;96.30;;;;;;5004030;28;20229;-70
2022/04/07 07:54:04;;;;;;;15.68;1.88;;;9.50;96.60;;;;;;5006259;28;20214;-69
2022/04/07 07:56:31;;;;;;;14.48;2.10;;;9.60;96.10;;;;;;4991129;28;20117;-69
2022/04/07 07:58:57;;;;;;;9.73;1.98;;;9.60;96.20;;;;;;5022877;28;20097;-69
2022/04/07 08:01:22;;;;;;;17.45;2.70;;;9.60;95.80;;;;;;5021829;28;20018;-68
2022/04/07 08:03:48;;;;;;;20.33;2.50;;;9.60;95.90;;;;;;5006066;28;20029;-69
2022/04/07 08:06:14;;;;;;;13.52;1.95;;;9.70;96.50;;;;;;4994722;28;20026;-68
2022/04/07 08:08:39;;;;;;;18.85;3.00;;;9.80;96.20;;;;;;5003564;28;20022;-69
2022/04/07 08:11:05;;;;;;;26.48;2.97;;;9.90;96.10;;;;;;5017802;28;20025;-68
2022/04/07 08:13:31;;;;;;;11.77;2.17;;;10.00;96.20;;;;;;5006179;28;20256;-69
2022/04/07 08:15:57;;;;;;;17.08;2.35;;;9.90;95.40;;;;;;5006363;28;20026;-70
2022/04/07 08:18:23;;;;;;;16.60;2.30;;;9.80;95.50;;;;;;5020928;28;20067;-69
2022/04/07 08:20:49;;;;;;;12.55;1.83;;;9.80;95.60;;;;;;5006601;28;20022;-70
2022/04/07 08:23:15;;;;;;;12.52;1.67;;;9.80;95.80;;;;;;5023936;28;20259;-70
2022/04/07 08:25:41;;;;;;;16.70;2.42;;;9.90;95.40;;;;;;5021309;28;20040;-69
2022/04/07 08:28:07;;;;;;;15.02;2.50;;;10.00;95.10;;;;;;5035460;28;20034;-71
2022/04/07 08:30:34;;;;;;;19.38;2.53;;;10.00;95.10;;;;;;5004418;28;20090;-70
2022/04/07 08:33:01;;;;;;;14.35;2.05;;;10.10;95.20;;;;;;5036342;28;20050;-69
2022/04/07 08:35:27;;;;;;;18.38;2.35;;;10.20;95.00;;;;;;5006127;28;20025;-70
2022/04/07 08:37:53;;;;;;;6.03;1.63;;;10.20;94.40;;;;;;4977597;28;20034;-72
2022/04/07 08:40:21;;;;;;;16.70;1.80;;;10.10;93.90;;;;;;5019677;28;20026;-71
2022/04/07 08:42:47;;;;;;;11.48;1.48;;;10.20;94.00;;;;;;5002757;28;20074;-71
2022/04/07 08:45:13;;;;;;;12.05;2.22;;;10.10;94.30;;;;;;5004309;28;20018;-71
2022/04/07 08:47:40;;;;;;;9.05;1.13;;;10.00;94.50;;;;;;5038765;28;20091;-71
2022/04/07 08:50:07;;;;;;;14.38;2.30;;;10.00;94.60;;;;;;5022177;28;20017;-71
2022/04/07 08:52:35;;;;;;;8.20;1.98;;;10.00;94.70;;;;;;5014827;28;20072;-71
2022/04/07 08:55:01;;;;;;;13.77;1.63;;;10.20;94.30;;;;;;5021803;28;20344;-69
2022/04/07 08:57:29;;;;;;;10.88;1.42;;;10.30;93.90;;;;;;5014093;28;20034;-71
2022/04/07 08:59:56;;;;;;;11.60;1.40;;;10.40;93.90;;;;;;5008080;28;20057;-71
2022/04/07 09:02:22;;;;;;;11.13;1.48;;;10.40;92.70;;;;;;5022016;28;20029;-72
2022/04/07 09:04:48;;;;;;;6.43;1.33;;;10.40;92.00;;;;;;5020829;28;20034;-71
2022/04/07 09:07:14;;;;;;;12.52;1.25;;;10.40;92.20;;;;;;4990116;28;20033;-71
2022/04/07 09:09:40;;;;;;;9.05;2.25;;;10.40;92.30;;;;;;5018797;28;20045;-70
2022/04/07 09:12:07;;;;;;;11.15;2.67;;;10.50;92.90;;;;;;4986596;28;20026;-70
2022/04/07 09:14:35;;;;;;;17.02;2.58;;;10.60;93.10;;;;;;5011622;28;20326;-71
2022/04/07 09:17:01;;;;;;;14.75;2.28;;;10.80;93.00;;;;;;5021994;28;20034;-72
2022/04/07 09:19:29;;;;;;;8.57;1.33;;;11.00;92.10;;;;;;5000714;28;20026;-73
2022/04/07 09:22:11;;;;;;;18.05;2.40;;;11.00;92.50;;;;;;4996728;28;20064;-71
2022/04/07 09:24:37;;;;;;;;;;;10.80;92.60;;;;;;5005764;28;20278;-70
2022/04/07 09:27:05;;;;;;;11.05;1.48;;;10.80;93.10;;;;;;4994852;28;19929;-73
2022/04/07 09:29:43;;;;;;;11.57;2.15;;;10.70;93.20;;;;;;5011134;28;20093;-70
2022/04/07 09:32:26;;;;;;;7.05;1.70;;;10.70;93.00;;;;;;5010770;28;20289;-73
2022/04/07 09:34:58;;;;;;;10.63;2.28;;;10.70;93.00;;;;;;5017852;28;20303;-76
2022/04/07 09:37:25;;;;;;;9.65;2.40;;;10.80;92.50;;;;;;4986626;28;20189;-73
2022/04/07 09:40:13;;;;;;;9.70;2.22;;;10.80;92.00;;;;;;5002403;28;20317;-72
2022/04/07 09:42:42;;;;;;;15.25;2.35;;;10.90;92.50;;;;;;4989498;28;20081;-74
2022/04/07 09:45:12;;;;;;;15.88;2.28;;;11.00;92.50;;;;;;5003758;28;20053;-74
2022/04/07 09:47:40;;;;;;;3.08;1.05;;;11.10;92.70;;;;;;5021634;28;20030;-74
2022/04/07 09:50:07;;;;;;;10.75;1.73;;;11.20;91.80;;;;;;5005675;28;20090;-71
2022/04/07 09:52:33;;;;;;;15.13;2.30;;;11.20;91.40;;;;;;5022323;28;20049;-73
2022/04/07 09:55:06;;;;;;;10.45;1.85;;;11.30;91.60;;;;;;5005620;28;20018;-74
2022/04/07 09:57:33;;;;;;;13.05;1.98;;;11.30;90.90;;;;;;5020314;28;20112;-76
2022/04/07 10:00:03;;;;;;;11.98;1.90;;;11.30;91.10;;;;;;4989638;28;20026;-75
2022/04/07 10:02:30;;;;;;;9.40;1.15;;;11.30;91.10;;;;;;5021391;28;20067;-74
2022/04/07 10:04:57;;;;;;;8.98;1.73;;;11.20;91.30;;;;;;5010678;28;20026;-73
2022/04/07 10:07:25;;;;;;;13.27;1.98;;;11.10;91.70;;;;;;5025188;28;20052;-75
2022/04/07 10:09:51;;;;;;;16.67;1.70;;;11.00;91.90;;;;;;5009238;28;20053;-73
2022/04/07 10:12:19;;;;;;;10.60;1.33;;;11.10;92.10;;;;;;5023086;28;20029;-74
2022/04/07 10:14:45;;;;;;;5.20;1.10;;;11.40;91.20;;;;;;5025214;28;20065;-73
2022/04/07 10:17:13;;;;;;;9.13;1.50;;;11.30;91.00;;;;;;5008080;28;20229;-72
2022/04/07 10:19:58;;;;;;;11.68;1.48;;;11.40;91.40;;;;;;5007216;28;20073;-74
2022/04/07 10:23:05;;;;;;;13.32;2.10;;;11.50;90.40;;;;;;5023594;28;20030;-71
2022/04/07 10:25:32;;;;;;;11.45;2.38;;;11.30;91.00;;;;;;5017042;28;20022;-73
2022/04/07 10:28:04;;;;;;;13.50;2.03;;;11.60;92.60;;;;;;5021502;28;20026;-73
2022/04/07 10:30:30;;;;;;;14.50;3.17;;;11.80;91.20;;;;;;5037485;28;20049;-70
2022/04/07 10:32:58;;;;;;;13.55;2.28;;;11.90;91.20;;;;;;5004828;28;20203;-72
2022/04/07 10:35:36;;;;;;;12.95;1.92;;;12.00;91.10;;;;;;5018202;28;20090;-76
2022/04/07 10:38:06;;;;;;;12.95;2.00;;;11.90;90.50;;;;;;5022123;28;20072;-75
2022/04/07 10:40:38;;;;;;;12.57;2.20;;;12.10;90.50;;;;;;5008680;28;20288;-74
2022/04/07 10:43:22;;;;;;;10.75;1.77;;;12.30;90.10;;;;;;5023600;28;20427;-71
2022/04/07 10:45:50;;;;;;;17.58;3.10;;;12.20;89.40;;;;;;5007751;28;20028;-72
2022/04/07 10:48:31;;;;;;;12.80;2.22;;;12.40;88.40;;;;;;5005200;28;20293;-71
2022/04/07 10:50:59;;;;;;;9.48;1.20;;;12.10;89.70;;;;;;5017585;28;20049;-73
2022/04/07 10:53:27;;;;;;;6.70;1.00;;;12.00;88.00;;;;;;5038845;28;20033;-75
2022/04/07 10:56:18;;;;;;;12.88;1.90;;;11.80;89.40;;;;;;5000366;28;20049;-74
2022/04/07 10:58:49;;;;;;;11.55;1.75;;;11.90;89.80;;;;;;4994259;28;20018;-75
2022/04/07 11:01:54;;;;;;;11.18;1.75;;;12.00;89.10;;;;;;5012529;28;20221;-73
2022/04/07 11:04:28;;;;;;;13.07;1.77;;;12.00;90.10;;;;;;5015151;28;20022;-71
2022/04/07 11:07:11;;;;;;;10.43;1.80;;;12.20;90.00;;;;;;4994164;28;20347;-71
2022/04/07 11:10:05;;;;;;;10.52;1.73;;;12.50;89.70;;;;;;5023555;28;20038;-75
2022/04/07 11:12:37;;;;;;;17.92;1.92;;;12.60;88.70;;;;;;5006367;28;20024;-74
2022/04/07 11:15:43;;;;;;;7.55;1.33;;;12.40;88.50;;;;;;5020817;28;20029;-75
2022/04/07 11:18:48;;;;;;;18.77;2.97;;;12.50;87.80;;;;;;4999572;28;20029;-75
2022/04/07 11:21:14;;;;;;;18.20;2.35;;;12.40;89.90;;;;;;5008012;28;20213;-73
2022/04/07 11:23:53;;;;;;;14.65;1.70;;;12.40;89.70;;;;;;5015156;28;20037;-74
2022/04/07 11:26:24;;;;;;;10.48;2.13;;;12.30;88.80;;;;;;5020860;28;20026;-75
2022/04/07 11:29:11;;;;;;;15.55;1.85;;;12.20;89.80;;;;;;5020049;28;20335;-74
2022/04/07 11:31:48;;;;;;;14.95;2.33;;;12.40;90.70;;;;;;5033043;28;20316;-75
2022/04/07 11:34:55;;;;;;;13.07;2.22;;;12.50;90.30;;;;;;5014565;28;20057;-74
2022/04/07 11:37:21;;;;;;;14.50;1.92;;;12.60;88.90;;;;;;5002953;28;20335;-72
2022/04/07 11:39:50;;;;;;;18.02;3.63;;;12.60;89.30;;;;;;5007584;28;20054;-72
2022/04/07 11:42:18;;;;;;;17.33;2.08;;;12.70;88.70;;;;;;5003930;28;20301;-72
2022/04/07 11:44:45;;;;;;;11.45;2.45;;;12.50;90.20;;;;;;5001608;28;20022;-73
2022/04/07 11:47:34;;;;;;;15.38;2.88;;;12.40;90.00;;;;;;5023501;28;20320;-71
2022/04/07 11:50:02;;;;;;;12.13;2.00;;;12.40;90.60;;;;;;5023767;28;20284;-73
2022/04/07 11:52:33;;;;;;;22.73;3.00;;;12.30;90.40;;;;;;5007439;28;20025;-76
2022/04/07 11:55:00;;;;;;;14.00;2.13;;;12.40;91.60;;;;;;5011878;28;20029;-72
2022/04/07 11:57:28;;;;;;;11.95;1.90;;;12.60;90.70;;;;;;5022951;28;20256;-74
2022/04/07 11:59:58;;;;;;;15.32;1.85;;;12.60;90.90;;;;;;4993342;28;20029;-71
2022/04/07 12:02:25;;;;;;;15.45;2.25;;;12.60;90.90;;;;;;5024021;28;20317;-74
2022/04/07 12:05:00;;;;;;;11.27;1.98;;;12.60;90.50;;;;;;5001200;28;20018;-71
2022/04/07 12:07:27;;;;;;;15.27;2.47;;;12.60;90.50;;;;;;5006290;28;20196;-73
2022/04/07 12:09:56;;;;;;;14.10;2.22;;;12.70;90.70;;;;;;5013780;28;20030;-69
2022/04/07 12:12:23;;;;;;;17.40;2.35;;;12.70;90.50;;;;;;5035701;28;20030;-76
2022/04/07 12:14:50;;;;;;;22.35;2.40;;;12.70;90.60;;;;;;5035619;28;20018;-74
2022/04/07 12:17:15;;;;;;;13.52;2.20;;;12.80;90.40;;;;;;5036905;28;20034;-75
2022/04/07 12:19:45;;;;;;;14.05;1.95;;;12.90;90.70;;;;;;5004472;28;20042;-73
2022/04/07 12:22:12;;;;;;;17.52;1.55;;;13.00;90.40;;;;;;5018035;28;20366;-73
2022/04/07 12:24:38;;;;;;;21.63;2.95;;;13.00;90.00;;;;;;5023060;28;20021;-73
2022/04/07 12:27:04;;;;;;;15.48;2.72;;;12.80;90.70;;;;;;5007290;28;20068;-73
2022/04/07 12:29:32;;;;;;;22.83;2.53;;;12.70;91.00;;;;;;5005003;28;20121;-75
2022/04/07 12:32:06;;;;;;;22.35;2.55;;;12.80;91.20;;;;;;5023103;28;20029;-76
2022/04/07 12:34:31;;;;;;;14.70;2.22;;;12.90;91.10;;;;;;5019617;28;20206;-72
2022/04/07 12:36:57;;;;;;;12.65;1.83;;;12.90;91.10;;;;;;5004571;28;20022;-71
2022/04/07 12:39:28;;;;;;;15.77;2.60;;;12.90;91.00;;;;;;5003069;28;20037;-71
2022/04/07 12:42:03;;;;;;;16.45;2.05;;;12.90;91.40;;;;;;5003098;28;20022;-73
2022/04/07 12:44:35;;;;;;;17.67;2.63;;;13.10;90.80;;;;;;5017365;28;20029;-76
2022/04/07 12:47:12;;;;;;;19.75;2.17;;;13.10;90.80;;;;;;5022434;28;20093;-74
2022/04/07 12:49:38;;;;;;;15.57;2.65;;;13.00;90.00;;;;;;4992719;28;20078;-75